This is the latest recevied weather packets stored in our database for station/object KH6DH-13. If no packets are shown the sender has not sent any weather packets the latest 10 day(s).
| Time | Temp. | Humidity | Pressure | Rain* | Wind** | Luminosity | Snow |
|---|---|---|---|---|---|---|---|
| 1788503221 | 25.56° C | - | - | 0 mm | 1.79 m/s, 149° | - | - |
| 1788502620 | 26.11° C | - | - | 0 mm | 2.68 m/s, 359° | - | - |
| 1788502019 | 25.56° C | - | - | 0 mm | 2.68 m/s, 23° | - | - |
| 1788501418 | 25.56° C | - | - | 0 mm | 1.34 m/s, 63° | - | - |
| 1788500817 | 26.11° C | - | - | 0 mm | 2.68 m/s, 68° | - | - |
| 1788500216 | 26.11° C | - | - | 0 mm | 2.24 m/s, 152° | - | - |
| 1788499615 | 26.11° C | - | - | 0 mm | 1.34 m/s, 128° | - | - |
| 1788499014 | 26.11° C | - | - | 0 mm | 0.45 m/s, 158° | - | - |
| 1788498413 | 26.11° C | - | - | 0 mm | 1.34 m/s, 84° | - | - |
| 1788497812 | 26.67° C | - | - | 0 mm | 0 m/s | - | - |
| 1788497211 | 26.11° C | - | - | 0 mm | 0.89 m/s, 276° | - | - |
| 1788496609 | 26.67° C | - | - | 0 mm | 2.24 m/s, 45° | - | - |
| 1788496008 | 26.67° C | - | - | 0 mm | 1.34 m/s, 335° | - | - |
| 1788495407 | 26.67° C | - | - | 0 mm | 1.34 m/s, 166° | - | - |
| 1788494803 | 26.67° C | - | - | 0 mm | 1.79 m/s, 77° | - | - |
| 1788494202 | 26.67° C | - | - | 0 mm | 0.45 m/s, 104° | - | - |
| 1788493601 | 26.67° C | - | - | 0 mm | 0.45 m/s, 42° | - | - |
| 1788493000 | 27.22° C | - | - | 0 mm | 2.68 m/s, 114° | - | - |
| 1788492399 | 27.22° C | - | - | 0 mm | 2.68 m/s, 134° | - | - |
| 1788491798 | 27.22° C | - | - | 0 mm | 0.89 m/s, 322° | - | - |
| 1788491197 | 27.22° C | - | - | 0 mm | 0.45 m/s, 8° | - | - |
| 1788490596 | 26.67° C | - | - | 0 mm | 0.89 m/s, 24° | - | - |
| 1788489992 | 27.22° C | - | - | 0 mm | 3.58 m/s, 72° | - | - |
| 1788489391 | 27.22° C | - | - | 0 mm | 0.89 m/s, 96° | - | - |
| 1788488790 | 27.22° C | - | - | 0 mm | 1.79 m/s, 96° | - | - |
* Rain latest hour (hover to see other rain measurements)
** Current wind speed in m/s (hover to see current wind gust speed)